37.1°F
Current conditions from King Hill
Updated every 5 minutes
 
  Friday October 31, 2014

Station Historical Data
Daily Summary for November 14, 2011 Units:  Both    English   Metric
« Previous Day
Next Day »
Daily Weekly Monthly Yearly Custom
  High: Low: Average:
Temperature: 62.2 °F /  16.8 °C 49.2 °F /  9.6 °C 54.9 °F /  12.7 °C
Dew Point: 50.9 °F /  10.5 °C 35.0 °F /  1.7 °C 41.8 °F /  5.4 °C
Humidity: 91% 49% 62%
Wind Speed: 15.0mph /  24.1km/h - 8.1mph /  13km/h
Wind Gust: 28.0mph /  45.1km/h - -
Wind- - SSW
Pressure: 29.72 in /  1006.3 hPa 29.49 in /  998.5 hPa -
Precipitation: 0.12 in /  3 mm    
Historical Graphs
 
 
Tabular Data for November 14, 2011
Time Temperature Dew Point Pressure Wind Wind Speed Wind Gust Humidity Daily Rainfall
00:04 51.8 °F /  11 °C 35.2 °F /  1.8 °C 29.72in /  1006.3hPa SSW 8.0mph /  12.9km/h 21.0mph /  33.8km/h 53% 0.00in /  0mm
00:09 51.6 °F /  10.9 °C 35.0 °F /  1.7 °C 29.72in /  1006.3hPa SSW 8.0mph /  12.9km/h 18.0mph /  29km/h 53% 0.00in /  0mm
00:14 51.6 °F /  10.9 °C 35.0 °F /  1.7 °C 29.72in /  1006.3hPa SSW 7.0mph /  11.3km/h 20.0mph /  32.2km/h 53% 0.00in /  0mm
00:19 51.7 °F /  10.9 °C 35.1 °F /  1.7 °C 29.72in /  1006.3hPa SSW 12.0mph /  19.3km/h 20.0mph /  32.2km/h 53% 0.00in /  0mm
00:24 51.8 °F /  11 °C 35.2 °F /  1.8 °C 29.72in /  1006.3hPa SSW 10.0mph /  16.1km/h 20.0mph /  32.2km/h 53% 0.00in /  0mm
00:29 51.8 °F /  11 °C 35.2 °F /  1.8 °C 29.72in /  1006.3hPa SSW 11.0mph /  17.7km/h 20.0mph /  32.2km/h 53% 0.00in /  0mm
00:34 51.9 °F /  11.1 °C 35.3 °F /  1.8 °C 29.72in /  1006.3hPa SSW 9.0mph /  14.5km/h 24.0mph /  38.6km/h 53% 0.00in /  0mm
00:39 51.9 °F /  11.1 °C 35.3 °F /  1.8 °C 29.71in /  1006hPa SSW 10.0mph /  16.1km/h 24.0mph /  38.6km/h 53% 0.00in /  0mm
00:44 52.0 °F /  11.1 °C 35.4 °F /  1.9 °C 29.71in /  1006hPa SSW 9.0mph /  14.5km/h 22.0mph /  35.4km/h 53% 0.00in /  0mm
00:49 52.1 °F /  11.2 °C 35.0 °F /  1.7 °C 29.70in /  1005.6hPa SSW 11.0mph /  17.7km/h 20.0mph /  32.2km/h 52% 0.00in /  0mm
00:54 52.1 °F /  11.2 °C 35.5 °F /  1.9 °C 29.71in /  1006hPa SSW 9.0mph /  14.5km/h 21.0mph /  33.8km/h 53% 0.00in /  0mm
00:59 52.3 °F /  11.3 °C 35.2 °F /  1.8 °C 29.71in /  1006hPa SSW 9.0mph /  14.5km/h 21.0mph /  33.8km/h 52% 0.00in /  0mm
01:04 52.4 °F /  11.3 °C 35.3 °F /  1.8 °C 29.70in /  1005.6hPa SSW 11.0mph /  17.7km/h 21.0mph /  33.8km/h 52% 0.00in /  0mm
01:09 52.4 °F /  11.3 °C 35.3 °F /  1.8 °C 29.70in /  1005.6hPa South 8.0mph /  12.9km/h 21.0mph /  33.8km/h 52% 0.00in /  0mm
01:14 52.4 °F /  11.3 °C 35.3 °F /  1.8 °C 29.70in /  1005.6hPa SSW 12.0mph /  19.3km/h 20.0mph /  32.2km/h 52% 0.00in /  0mm
01:19 52.5 °F /  11.4 °C 35.4 °F /  1.9 °C 29.70in /  1005.6hPa SSW 8.0mph /  12.9km/h 20.0mph /  32.2km/h 52% 0.00in /  0mm
01:25 52.4 °F /  11.3 °C 35.3 °F /  1.8 °C 29.71in /  1006hPa SSW 12.0mph /  19.3km/h 19.0mph /  30.6km/h 52% 0.00in /  0mm
01:29 52.2 °F /  11.2 °C 36.5 °F /  2.5 °C 29.70in /  1005.6hPa SSW 11.0mph /  17.7km/h 21.0mph /  33.8km/h 55% 0.00in /  0mm
01:34 51.4 °F /  10.8 °C 37.6 °F /  3.1 °C 29.70in /  1005.6hPa SSW 9.0mph /  14.5km/h 21.0mph /  33.8km/h 59% 0.00in /  0mm
01:44 50.4 °F /  10.2 °C 37.9 °F /  3.3 °C 29.70in /  1005.6hPa SSW 6.0mph /  9.7km/h 21.0mph /  33.8km/h 62% 0.00in /  0mm
01:49 50.4 °F /  10.2 °C 37.5 °F /  3.1 °C 29.70in /  1005.6hPa SSW 7.0mph /  11.3km/h 21.0mph /  33.8km/h 61% 0.00in /  0mm
01:54 50.8 °F /  10.4 °C 37.0 °F /  2.8 °C 29.70in /  1005.6hPa SSW 7.0mph /  11.3km/h 17.0mph /  27.4km/h 59% 0.00in /  0mm
01:59 51.4 °F /  10.8 °C 36.7 °F /  2.6 °C 29.70in /  1005.6hPa SSW 10.0mph /  16.1km/h 20.0mph /  32.2km/h 57% 0.00in /  0mm
02:04 51.6 °F /  10.9 °C 36.9 °F /  2.7 °C 29.70in /  1005.6hPa SSW 8.0mph /  12.9km/h 20.0mph /  32.2km/h 57% 0.00in /  0mm
02:09 51.7 °F /  10.9 °C 36.5 °F /  2.5 °C 29.70in /  1005.6hPa SSW 8.0mph /  12.9km/h 18.0mph /  29km/h 56% 0.00in /  0mm
02:14 51.9 °F /  11.1 °C 36.7 °F /  2.6 °C 29.70in /  1005.6hPa SSW 9.0mph /  14.5km/h 21.0mph /  33.8km/h 56% 0.00in /  0mm
02:19 52.1 °F /  11.2 °C 36.4 °F /  2.4 °C 29.69in /  1005.3hPa SSW 10.0mph /  16.1km/h 22.0mph /  35.4km/h 55% 0.00in /  0mm
02:24 52.1 °F /  11.2 °C 36.4 °F /  2.4 °C 29.69in /  1005.3hPa SSW 11.0mph /  17.7km/h 22.0mph /  35.4km/h 55% 0.00in /  0mm
02:29 52.1 °F /  11.2 °C 36.4 °F /  2.4 °C 29.69in /  1005.3hPa SSW 10.0mph /  16.1km/h 21.0mph /  33.8km/h 55% 0.00in /  0mm
02:34 51.9 °F /  11.1 °C 36.7 °F /  2.6 °C 29.69in /  1005.3hPa SSW 7.0mph /  11.3km/h 20.0mph /  32.2km/h 56% 0.00in /  0mm
02:39 51.9 °F /  11.1 °C 36.7 °F /  2.6 °C 29.69in /  1005.3hPa SSW 9.0mph /  14.5km/h 18.0mph /  29km/h 56% 0.00in /  0mm
02:44 52.0 °F /  11.1 °C 36.3 °F /  2.4 °C 29.69in /  1005.3hPa SSW 9.0mph /  14.5km/h 18.0mph /  29km/h 55% 0.00in /  0mm
02:49 52.1 °F /  11.2 °C 36.9 °F /  2.7 °C 29.69in /  1005.3hPa SSW 5.0mph /  8km/h 18.0mph /  29km/h 56% 0.00in /  0mm
02:54 52.0 °F /  11.1 °C 36.3 °F /  2.4 °C 29.69in /  1005.3hPa SSW 9.0mph /  14.5km/h 18.0mph /  29km/h 55% 0.00in /  0mm
02:59 52.3 °F /  11.3 °C 36.6 °F /  2.6 °C 29.69in /  1005.3hPa SSW 8.0mph /  12.9km/h 20.0mph /  32.2km/h 55% 0.00in /  0mm
03:04 52.1 °F /  11.2 °C 36.9 °F /  2.7 °C 29.69in /  1005.3hPa SSW 9.0mph /  14.5km/h 21.0mph /  33.8km/h 56% 0.00in /  0mm
03:09 52.0 °F /  11.1 °C 36.8 °F /  2.7 °C 29.68in /  1005hPa SSW 6.0mph /  9.7km/h 21.0mph /  33.8km/h 56% 0.00in /  0mm
03:14 52.1 °F /  11.2 °C 36.4 °F /  2.4 °C 29.68in /  1005hPa SSW 8.0mph /  12.9km/h 18.0mph /  29km/h 55% 0.00in /  0mm
03:19 52.2 °F /  11.2 °C 36.5 °F /  2.5 °C 29.68in /  1005hPa SSW 7.0mph /  11.3km/h 18.0mph /  29km/h 55% 0.00in /  0mm
03:24 52.1 °F /  11.2 °C 36.9 °F /  2.7 °C 29.69in /  1005.3hPa SSW 6.0mph /  9.7km/h 17.0mph /  27.4km/h 56% 0.00in /  0mm
03:29 51.9 °F /  11.1 °C 37.2 °F /  2.9 °C 29.68in /  1005hPa SSW 6.0mph /  9.7km/h 15.0mph /  24.1km/h 57% 0.00in /  0mm
03:34 51.9 °F /  11.1 °C 36.7 °F /  2.6 °C 29.69in /  1005.3hPa SSW 7.0mph /  11.3km/h 17.0mph /  27.4km/h 56% 0.00in /  0mm
03:39 51.9 °F /  11.1 °C 36.7 °F /  2.6 °C 29.69in /  1005.3hPa SSW 8.0mph /  12.9km/h 17.0mph /  27.4km/h 56% 0.00in /  0mm
03:44 51.5 °F /  10.8 °C 38.5 °F /  3.6 °C 29.68in /  1005hPa SSW 7.0mph /  11.3km/h 14.0mph /  22.5km/h 61% 0.00in /  0mm
03:49 50.6 °F /  10.3 °C 39.3 °F /  4.1 °C 29.68in /  1005hPa SSW 7.0mph /  11.3km/h 15.0mph /  24.1km/h 65% 0.00in /  0mm
03:54 49.9 °F /  9.9 °C 39.4 °F /  4.1 °C 29.68in /  1005hPa SSW 7.0mph /  11.3km/h 19.0mph /  30.6km/h 67% 0.00in /  0mm
03:59 49.4 °F /  9.7 °C 39.3 °F /  4.1 °C 29.67in /  1004.6hPa SSW 7.0mph /  11.3km/h 19.0mph /  30.6km/h 68% 0.00in /  0mm
04:04 49.2 °F /  9.6 °C 39.1 °F /  3.9 °C 29.67in /  1004.6hPa SSW 7.0mph /  11.3km/h 18.0mph /  29km/h 68% 0.00in /  0mm
04:09 49.2 °F /  9.6 °C 38.7 °F /  3.7 °C 29.67in /  1004.6hPa SSW 8.0mph /  12.9km/h 16.0mph /  25.7km/h 67% 0.00in /  0mm
04:14 49.5 °F /  9.7 °C 38.6 °F /  3.7 °C 29.67in /  1004.6hPa SSW 8.0mph /  12.9km/h 17.0mph /  27.4km/h 66% 0.00in /  0mm
04:19 49.9 °F /  9.9 °C 37.8 °F /  3.2 °C 29.67in /  1004.6hPa SSW 8.0mph /  12.9km/h 17.0mph /  27.4km/h 63% 0.00in /  0mm
04:24 50.5 °F /  10.3 °C 38.0 °F /  3.3 °C 29.67in /  1004.6hPa SSW 7.0mph /  11.3km/h 16.0mph /  25.7km/h 62% 0.00in /  0mm
04:29 50.8 °F /  10.4 °C 37.8 °F /  3.2 °C 29.67in /  1004.6hPa SSW 9.0mph /  14.5km/h 17.0mph /  27.4km/h 61% 0.00in /  0mm
04:34 50.9 °F /  10.5 °C 37.9 °F /  3.3 °C 29.67in /  1004.6hPa SSW 5.0mph /  8km/h 17.0mph /  27.4km/h 61% 0.00in /  0mm
04:39 51.0 °F /  10.6 °C 37.6 °F /  3.1 °C 29.67in /  1004.6hPa South 6.0mph /  9.7km/h 13.0mph /  20.9km/h 60% 0.00in /  0mm
04:44 51.2 °F /  10.7 °C 37.8 °F /  3.2 °C 29.67in /  1004.6hPa SSW 10.0mph /  16.1km/h 22.0mph /  35.4km/h 60% 0.00in /  0mm
04:49 51.4 °F /  10.8 °C 37.1 °F /  2.8 °C 29.67in /  1004.6hPa SSW 8.0mph /  12.9km/h 22.0mph /  35.4km/h 58% 0.00in /  0mm
04:54 51.5 °F /  10.8 °C 37.2 °F /  2.9 °C 29.67in /  1004.6hPa SSW 8.0mph /  12.9km/h 18.0mph /  29km/h 58% 0.00in /  0mm
04:59 51.7 °F /  10.9 °C 37.0 °F /  2.8 °C 29.67in /  1004.6hPa South 9.0mph /  14.5km/h 16.0mph /  25.7km/h 57% 0.00in /  0mm
05:04 51.8 °F /  11 °C 37.1 °F /  2.8 °C 29.67in /  1004.6hPa SSW 8.0mph /  12.9km/h 16.0mph /  25.7km/h 57% 0.00in /  0mm
05:09 51.9 °F /  11.1 °C 36.7 °F /  2.6 °C 29.66in /  1004.3hPa SSW 9.0mph /  14.5km/h 18.0mph /  29km/h 56% 0.00in /  0mm
05:14 52.0 °F /  11.1 °C 36.3 °F /  2.4 °C 29.66in /  1004.3hPa SSW 9.0mph /  14.5km/h 18.0mph /  29km/h 55% 0.00in /  0mm
05:19 52.1 °F /  11.2 °C 36.4 °F /  2.4 °C 29.66in /  1004.3hPa SSW 9.0mph /  14.5km/h 17.0mph /  27.4km/h 55% 0.00in /  0mm
05:25 52.1 °F /  11.2 °C 36.4 °F /  2.4 °C 29.66in /  1004.3hPa SSW 11.0mph /  17.7km/h 21.0mph /  33.8km/h 55% 0.00in /  0mm
05:29 52.2 °F /  11.2 °C 36.5 °F /  2.5 °C 29.66in /  1004.3hPa SSW 7.0mph /  11.3km/h 21.0mph /  33.8km/h 55% 0.00in /  0mm
05:34 52.1 °F /  11.2 °C 36.4 °F /  2.4 °C 29.66in /  1004.3hPa SSW 6.0mph /  9.7km/h 16.0mph /  25.7km/h 55% 0.00in /  0mm
05:39 52.2 °F /  11.2 °C 36.5 °F /  2.5 °C 29.65in /  1003.9hPa SSW 9.0mph /  14.5km/h 19.0mph /  30.6km/h 55% 0.00in /  0mm
05:44 52.4 °F /  11.3 °C 36.2 °F /  2.3 °C 29.65in /  1003.9hPa SSW 8.0mph /  12.9km/h 19.0mph /  30.6km/h 54% 0.00in /  0mm
05:49 52.4 °F /  11.3 °C 36.2 °F /  2.3 °C 29.65in /  1003.9hPa South 7.0mph /  11.3km/h 16.0mph /  25.7km/h 54% 0.00in /  0mm
05:54 52.5 °F /  11.4 °C 36.3 °F /  2.4 °C 29.66in /  1004.3hPa SSW 6.0mph /  9.7km/h 20.0mph /  32.2km/h 54% 0.00in /  0mm
05:59 52.4 °F /  11.3 °C 36.2 °F /  2.3 °C 29.65in /  1003.9hPa SSW 8.0mph /  12.9km/h 20.0mph /  32.2km/h 54% 0.00in /  0mm
06:04 52.5 °F /  11.4 °C 36.3 °F /  2.4 °C 29.65in /  1003.9hPa SSW 10.0mph /  16.1km/h 20.0mph /  32.2km/h 54% 0.00in /  0mm
06:09 52.5 °F /  11.4 °C 36.3 °F /  2.4 °C 29.65in /  1003.9hPa SSW 9.0mph /  14.5km/h 20.0mph /  32.2km/h 54% 0.00in /  0mm
06:14 52.6 °F /  11.4 °C 36.4 °F /  2.4 °C 29.65in /  1003.9hPa SSW 9.0mph /  14.5km/h 21.0mph /  33.8km/h 54% 0.00in /  0mm
06:19 52.5 °F /  11.4 °C 36.3 °F /  2.4 °C 29.65in /  1003.9hPa SSW 10.0mph /  16.1km/h 21.0mph /  33.8km/h 54% 0.00in /  0mm
06:24 52.5 °F /  11.4 °C 36.3 °F /  2.4 °C 29.65in /  1003.9hPa SSW 8.0mph /  12.9km/h 20.0mph /  32.2km/h 54% 0.00in /  0mm
06:29 52.5 °F /  11.4 °C 36.3 °F /  2.4 °C 29.65in /  1003.9hPa SSW 11.0mph /  17.7km/h 19.0mph /  30.6km/h 54% 0.00in /  0mm
06:34 52.6 °F /  11.4 °C 36.4 °F /  2.4 °C 29.65in /  1003.9hPa SSW 11.0mph /  17.7km/h 21.0mph /  33.8km/h 54% 0.00in /  0mm
06:39 52.6 °F /  11.4 °C 36.4 °F /  2.4 °C 29.65in /  1003.9hPa SSW 9.0mph /  14.5km/h 21.0mph /  33.8km/h 54% 0.00in /  0mm
06:44 52.5 °F /  11.4 °C 36.3 °F /  2.4 °C 29.65in /  1003.9hPa SSW 9.0mph /  14.5km/h 18.0mph /  29km/h 54% 0.00in /  0mm
06:49 52.4 °F /  11.3 °C 36.2 °F /  2.3 °C 29.65in /  1003.9hPa SSW 10.0mph /  16.1km/h 19.0mph /  30.6km/h 54% 0.00in /  0mm
06:54 52.4 °F /  11.3 °C 36.2 °F /  2.3 °C 29.65in /  1003.9hPa South 8.0mph /  12.9km/h 21.0mph /  33.8km/h 54% 0.00in /  0mm
06:59 52.6 °F /  11.4 °C 36.4 °F /  2.4 °C 29.65in /  1003.9hPa SSW 12.0mph /  19.3km/h 21.0mph /  33.8km/h 54% 0.00in /  0mm
07:04 52.5 °F /  11.4 °C 36.3 °F /  2.4 °C 29.65in /  1003.9hPa SSW 12.0mph /  19.3km/h 22.0mph /  35.4km/h 54% 0.00in /  0mm
07:09 52.6 °F /  11.4 °C 36.4 °F /  2.4 °C 29.65in /  1003.9hPa SSW 9.0mph /  14.5km/h 22.0mph /  35.4km/h 54% 0.00in /  0mm
07:14 52.7 °F /  11.5 °C 36.5 °F /  2.5 °C 29.65in /  1003.9hPa SSW 11.0mph /  17.7km/h 20.0mph /  32.2km/h 54% 0.00in /  0mm
07:19 52.9 °F /  11.6 °C 36.2 °F /  2.3 °C 29.65in /  1003.9hPa SSW 12.0mph /  19.3km/h 24.0mph /  38.6km/h 53% 0.00in /  0mm
07:24 53.0 °F /  11.7 °C 36.8 °F /  2.7 °C 29.65in /  1003.9hPa SSW 9.0mph /  14.5km/h 24.0mph /  38.6km/h 54% 0.00in /  0mm
07:29 53.1 °F /  11.7 °C 36.9 °F /  2.7 °C 29.64in /  1003.6hPa SSW 10.0mph /  16.1km/h 22.0mph /  35.4km/h 54% 0.00in /  0mm
07:35 53.2 °F /  11.8 °C 37.0 °F /  2.8 °C 29.65in /  1003.9hPa SSW 8.0mph /  12.9km/h 21.0mph /  33.8km/h 54% 0.00in /  0mm
07:44 53.4 °F /  11.9 °C 36.7 °F /  2.6 °C 29.65in /  1003.9hPa SSW 11.0mph /  17.7km/h 21.0mph /  33.8km/h 53% 0.00in /  0mm
07:49 53.7 °F /  12.1 °C 37.0 °F /  2.8 °C 29.65in /  1003.9hPa SSW 8.0mph /  12.9km/h 21.0mph /  33.8km/h 53% 0.00in /  0mm
07:54 53.8 °F /  12.1 °C 37.1 °F /  2.8 °C 29.65in /  1003.9hPa SSW 9.0mph /  14.5km/h 20.0mph /  32.2km/h 53% 0.00in /  0mm
07:59 54.0 °F /  12.2 °C 37.3 °F /  2.9 °C 29.64in /  1003.6hPa SSW 10.0mph /  16.1km/h 22.0mph /  35.4km/h 53% 0.00in /  0mm
08:04 54.1 °F /  12.3 °C 37.4 °F /  3 °C 29.65in /  1003.9hPa SSW 10.0mph /  16.1km/h 22.0mph /  35.4km/h 53% 0.00in /  0mm
08:09 54.1 °F /  12.3 °C 37.4 °F /  3 °C 29.65in /  1003.9hPa SSW 8.0mph /  12.9km/h 21.0mph /  33.8km/h 53% 0.00in /  0mm
08:14 54.2 °F /  12.3 °C 37.4 °F /  3 °C 29.65in /  1003.9hPa SSW 12.0mph /  19.3km/h 21.0mph /  33.8km/h 53% 0.00in /  0mm
08:19 54.3 °F /  12.4 °C 37.1 °F /  2.8 °C 29.65in /  1003.9hPa SSW 9.0mph /  14.5km/h 21.0mph /  33.8km/h 52% 0.00in /  0mm
08:24 54.5 °F /  12.5 °C 37.7 °F /  3.2 °C 29.65in /  1003.9hPa SSW 10.0mph /  16.1km/h 26.0mph /  41.8km/h 53% 0.00in /  0mm
08:29 54.6 °F /  12.6 °C 37.3 °F /  2.9 °C 29.65in /  1003.9hPa SSW 12.0mph /  19.3km/h 26.0mph /  41.8km/h 52% 0.00in /  0mm
08:34 54.7 °F /  12.6 °C 37.4 °F /  3 °C 29.65in /  1003.9hPa SSW 13.0mph /  20.9km/h 21.0mph /  33.8km/h 52% 0.00in /  0mm
08:39 54.8 °F /  12.7 °C 37.5 °F /  3.1 °C 29.65in /  1003.9hPa SSW 9.0mph /  14.5km/h 25.0mph /  40.2km/h 52% 0.00in /  0mm
08:44 54.8 °F /  12.7 °C 37.5 °F /  3.1 °C 29.65in /  1003.9hPa SSW 8.0mph /  12.9km/h 25.0mph /  40.2km/h 52% 0.00in /  0mm
08:49 55.1 °F /  12.8 °C 37.8 °F /  3.2 °C 29.65in /  1003.9hPa SW 10.0mph /  16.1km/h 19.0mph /  30.6km/h 52% 0.00in /  0mm
08:54 55.7 °F /  13.2 °C 38.4 °F /  3.6 °C 29.65in /  1003.9hPa SW 11.0mph /  17.7km/h 21.0mph /  33.8km/h 52% 0.00in /  0mm
08:59 56.2 °F /  13.4 °C 38.8 °F /  3.8 °C 29.65in /  1003.9hPa SSW 10.0mph /  16.1km/h 22.0mph /  35.4km/h 52% 0.00in /  0mm
09:04 56.4 °F /  13.6 °C 38.5 °F /  3.6 °C 29.65in /  1003.9hPa SSW 11.0mph /  17.7km/h 28.0mph /  45.1km/h 51% 0.00in /  0mm
09:09 56.6 °F /  13.7 °C 38.7 °F /  3.7 °C 29.65in /  1003.9hPa SSW 11.0mph /  17.7km/h 28.0mph /  45.1km/h 51% 0.00in /  0mm
09:14 56.7 °F /  13.7 °C 38.8 °F /  3.8 °C 29.65in /  1003.9hPa SW 11.0mph /  17.7km/h 25.0mph /  40.2km/h 51% 0.00in /  0mm
09:19 57.0 °F /  13.9 °C 39.1 °F /  3.9 °C 29.64in /  1003.6hPa SSW 12.0mph /  19.3km/h 26.0mph /  41.8km/h 51% 0.00in /  0mm
09:24 57.2 °F /  14 °C 39.2 °F /  4 °C 29.65in /  1003.9hPa SSW 11.0mph /  17.7km/h 26.0mph /  41.8km/h 51% 0.00in /  0mm
09:29 57.3 °F /  14.1 °C 39.3 °F /  4.1 °C 29.65in /  1003.9hPa SW 11.0mph /  17.7km/h 26.0mph /  41.8km/h 51% 0.00in /  0mm
09:34 57.3 °F /  14.1 °C 39.3 °F /  4.1 °C 29.65in /  1003.9hPa SSW 10.0mph /  16.1km/h 23.0mph /  37km/h 51% 0.00in /  0mm
09:39 57.3 °F /  14.1 °C 39.8 °F /  4.3 °C 29.65in /  1003.9hPa SSW 11.0mph /  17.7km/h 23.0mph /  37km/h 52% 0.00in /  0mm
09:44 57.2 °F /  14 °C 39.7 °F /  4.3 °C 29.65in /  1003.9hPa SSW 10.0mph /  16.1km/h 22.0mph /  35.4km/h 52% 0.00in /  0mm
09:49 57.0 °F /  13.9 °C 39.6 °F /  4.2 °C 29.65in /  1003.9hPa SSW 9.0mph /  14.5km/h 20.0mph /  32.2km/h 52% 0.00in /  0mm
09:54 56.9 °F /  13.8 °C 39.5 °F /  4.2 °C 29.65in /  1003.9hPa SW 8.0mph /  12.9km/h 19.0mph /  30.6km/h 52% 0.00in /  0mm
09:59 56.7 °F /  13.7 °C 39.8 °F /  4.3 °C 29.65in /  1003.9hPa SSW 10.0mph /  16.1km/h 19.0mph /  30.6km/h 53% 0.00in /  0mm
10:04 56.7 °F /  13.7 °C 39.8 °F /  4.3 °C 29.65in /  1003.9hPa SSW 9.0mph /  14.5km/h 23.0mph /  37km/h 53% 0.00in /  0mm
10:09 56.8 °F /  13.8 °C 39.9 °F /  4.4 °C 29.65in /  1003.9hPa SSW 8.0mph /  12.9km/h 23.0mph /  37km/h 53% 0.00in /  0mm
10:14 57.2 °F /  14 °C 39.7 °F /  4.3 °C 29.65in /  1003.9hPa SW 9.0mph /  14.5km/h 18.0mph /  29km/h 52% 0.00in /  0mm
10:19 57.4 °F /  14.1 °C 39.9 °F /  4.4 °C 29.65in /  1003.9hPa SSW 10.0mph /  16.1km/h 24.0mph /  38.6km/h 52% 0.00in /  0mm
10:24 57.4 °F /  14.1 °C 39.9 °F /  4.4 °C 29.65in /  1003.9hPa SW 12.0mph /  19.3km/h 24.0mph /  38.6km/h 52% 0.00in /  0mm
10:30 57.5 °F /  14.2 °C 40.0 °F /  4.4 °C 29.66in /  1004.3hPa SSW 12.0mph /  19.3km/h 22.0mph /  35.4km/h 52% 0.00in /  0mm
10:39 57.6 °F /  14.2 °C 40.6 °F /  4.8 °C 29.65in /  1003.9hPa SSW 6.0mph /  9.7km/h 19.0mph /  30.6km/h 53% 0.00in /  0mm
10:44 57.7 °F /  14.3 °C 40.7 °F /  4.8 °C 29.65in /  1003.9hPa SW 12.0mph /  19.3km/h 19.0mph /  30.6km/h 53% 0.00in /  0mm
10:49 57.8 °F /  14.3 °C 40.8 °F /  4.9 °C 29.65in /  1003.9hPa SSW 11.0mph /  17.7km/h 22.0mph /  35.4km/h 53% 0.00in /  0mm
10:54 58.0 °F /  14.4 °C 41.0 °F /  5 °C 29.65in /  1003.9hPa SW 9.0mph /  14.5km/h 22.0mph /  35.4km/h 53% 0.00in /  0mm
10:59 58.2 °F /  14.6 °C 41.2 °F /  5.1 °C 29.64in /  1003.6hPa SSW 13.0mph /  20.9km/h 21.0mph /  33.8km/h 53% 0.00in /  0mm
11:04 58.4 °F /  14.7 °C 41.3 °F /  5.2 °C 29.64in /  1003.6hPa SSW 9.0mph /  14.5km/h 21.0mph /  33.8km/h 53% 0.00in /  0mm
11:09 58.6 °F /  14.8 °C 41.5 °F /  5.3 °C 29.64in /  1003.6hPa SSW 10.0mph /  16.1km/h 20.0mph /  32.2km/h 53% 0.00in /  0mm
11:14 59.0 °F /  15 °C 41.9 °F /  5.5 °C 29.64in /  1003.6hPa SSW 8.0mph /  12.9km/h 22.0mph /  35.4km/h 53% 0.00in /  0mm
11:19 59.9 °F /  15.5 °C 42.2 °F /  5.7 °C 29.64in /  1003.6hPa SW 12.0mph /  19.3km/h 27.0mph /  43.5km/h 52% 0.00in /  0mm
11:24 61.0 °F /  16.1 °C 42.8 °F /  6 °C 29.63in /  1003.3hPa SSW 10.0mph /  16.1km/h 27.0mph /  43.5km/h 51% 0.00in /  0mm
11:29 61.8 °F /  16.6 °C 43.0 °F /  6.1 °C 29.64in /  1003.6hPa SSW 10.0mph /  16.1km/h 23.0mph /  37km/h 50% 0.00in /  0mm
11:34 62.1 °F /  16.7 °C 43.3 °F /  6.3 °C 29.64in /  1003.6hPa SSW 9.0mph /  14.5km/h 23.0mph /  37km/h 50% 0.00in /  0mm
11:39 62.2 °F /  16.8 °C 42.8 °F /  6 °C 29.64in /  1003.6hPa SSW 11.0mph /  17.7km/h 22.0mph /  35.4km/h 49% 0.00in /  0mm
11:44 60.9 °F /  16.1 °C 41.6 °F /  5.3 °C 29.64in /  1003.6hPa SSW 15.0mph /  24.1km/h 26.0mph /  41.8km/h 49% 0.00in /  0mm
11:49 61.2 °F /  16.2 °C 42.9 °F /  6.1 °C 29.64in /  1003.6hPa SW 11.0mph /  17.7km/h 26.0mph /  41.8km/h 51% 0.00in /  0mm
11:54 61.8 °F /  16.6 °C 43.0 °F /  6.1 °C 29.64in /  1003.6hPa SSW 8.0mph /  12.9km/h 23.0mph /  37km/h 50% 0.00in /  0mm
11:59 62.2 °F /  16.8 °C 42.8 °F /  6 °C 29.64in /  1003.6hPa SSW 12.0mph /  19.3km/h 22.0mph /  35.4km/h 49% 0.00in /  0mm
12:04 61.4 °F /  16.3 °C 43.1 °F /  6.2 °C 29.63in /  1003.3hPa SW 11.0mph /  17.7km/h 23.0mph /  37km/h 51% 0.00in /  0mm
12:09 61.0 °F /  16.1 °C 42.8 °F /  6 °C 29.63in /  1003.3hPa SSW 11.0mph /  17.7km/h 23.0mph /  37km/h 51% 0.00in /  0mm
12:14 61.0 °F /  16.1 °C 43.3 °F /  6.3 °C 29.64in /  1003.6hPa SSW 10.0mph /  16.1km/h 19.0mph /  30.6km/h 52% 0.00in /  0mm
12:19 61.2 °F /  16.2 °C 42.9 °F /  6.1 °C 29.63in /  1003.3hPa SSW 12.0mph /  19.3km/h 23.0mph /  37km/h 51% 0.00in /  0mm
12:24 60.8 °F /  16 °C 43.1 °F /  6.2 °C 29.63in /  1003.3hPa SW 13.0mph /  20.9km/h 23.0mph /  37km/h 52% 0.00in /  0mm
12:29 60.6 °F /  15.9 °C 42.9 °F /  6.1 °C 29.64in /  1003.6hPa SW 11.0mph /  17.7km/h 22.0mph /  35.4km/h 52% 0.00in /  0mm
12:34 60.3 °F /  15.7 °C 43.1 °F /  6.2 °C 29.63in /  1003.3hPa SW 8.0mph /  12.9km/h 20.0mph /  32.2km/h 53% 0.00in /  0mm
12:39 59.9 °F /  15.5 °C 42.7 °F /  5.9 °C 29.63in /  1003.3hPa SSW 10.0mph /  16.1km/h 22.0mph /  35.4km/h 53% 0.00in /  0mm
12:44 59.8 °F /  15.4 °C 42.6 °F /  5.9 °C 29.63in /  1003.3hPa SSW 11.0mph /  17.7km/h 22.0mph /  35.4km/h 53% 0.00in /  0mm
12:49 59.6 °F /  15.3 °C 42.9 °F /  6.1 °C 29.64in /  1003.6hPa SSW 13.0mph /  20.9km/h 23.0mph /  37km/h 54% 0.00in /  0mm
12:54 59.3 °F /  15.2 °C 42.7 °F /  5.9 °C 29.64in /  1003.6hPa SSW 13.0mph /  20.9km/h 23.0mph /  37km/h 54% 0.00in /  0mm
12:59 59.0 °F /  15 °C 42.4 °F /  5.8 °C 29.64in /  1003.6hPa SW 13.0mph /  20.9km/h 24.0mph /  38.6km/h 54% 0.00in /  0mm
13:04 59.1 °F /  15.1 °C 43.0 °F /  6.1 °C 29.64in /  1003.6hPa SSW 8.0mph /  12.9km/h 24.0mph /  38.6km/h 55% 0.00in /  0mm
13:09 59.2 °F /  15.1 °C 43.1 °F /  6.2 °C 29.64in /  1003.6hPa SSW 8.0mph /  12.9km/h 21.0mph /  33.8km/h 55% 0.00in /  0mm
13:14 59.1 °F /  15.1 °C 43.0 °F /  6.1 °C 29.64in /  1003.6hPa SSW 9.0mph /  14.5km/h 25.0mph /  40.2km/h 55% 0.00in /  0mm
13:19 59.2 °F /  15.1 °C 43.1 °F /  6.2 °C 29.64in /  1003.6hPa SSW 10.0mph /  16.1km/h 25.0mph /  40.2km/h 55% 0.00in /  0mm
13:24 59.1 °F /  15.1 °C 43.0 °F /  6.1 °C 29.64in /  1003.6hPa SSW 9.0mph /  14.5km/h 21.0mph /  33.8km/h 55% 0.00in /  0mm
13:29 59.0 °F /  15 °C 42.9 °F /  6.1 °C 29.64in /  1003.6hPa SSW 12.0mph /  19.3km/h 21.0mph /  33.8km/h 55% 0.00in /  0mm
13:34 59.0 °F /  15 °C 42.9 °F /  6.1 °C 29.64in /  1003.6hPa SSW 7.0mph /  11.3km/h 21.0mph /  33.8km/h 55% 0.00in /  0mm
13:39 59.0 °F /  15 °C 43.3 °F /  6.3 °C 29.64in /  1003.6hPa SSW 8.0mph /  12.9km/h 17.0mph /  27.4km/h 56% 0.00in /  0mm
13:44 59.0 °F /  15 °C 43.3 °F /  6.3 °C 29.64in /  1003.6hPa SW 8.0mph /  12.9km/h 16.0mph /  25.7km/h 56% 0.00in /  0mm
13:49 58.9 °F /  14.9 °C 43.2 °F /  6.2 °C 29.64in /  1003.6hPa SSW 8.0mph /  12.9km/h 19.0mph /  30.6km/h 56% 0.00in /  0mm
13:54 58.8 °F /  14.9 °C 43.2 °F /  6.2 °C 29.64in /  1003.6hPa SSW 7.0mph /  11.3km/h 19.0mph /  30.6km/h 56% 0.00in /  0mm
13:59 58.6 °F /  14.8 °C 43.0 °F /  6.1 °C 29.63in /  1003.3hPa SSW 8.0mph /  12.9km/h 18.0mph /  29km/h 56% 0.00in /  0mm
14:04 58.5 °F /  14.7 °C 42.9 °F /  6.1 °C 29.63in /  1003.3hPa SSW 7.0mph /  11.3km/h 18.0mph /  29km/h 56% 0.00in /  0mm
14:09 58.4 °F /  14.7 °C 43.2 °F /  6.2 °C 29.63in /  1003.3hPa SSW 9.0mph /  14.5km/h 18.0mph /  29km/h 57% 0.00in /  0mm
14:14 58.2 °F /  14.6 °C 43.1 °F /  6.2 °C 29.64in /  1003.6hPa SSW 9.0mph /  14.5km/h 17.0mph /  27.4km/h 57% 0.00in /  0mm
14:19 58.1 °F /  14.5 °C 43.0 °F /  6.1 °C 29.63in /  1003.3hPa SSW 8.0mph /  12.9km/h 18.0mph /  29km/h 57% 0.00in /  0mm
14:24 58.0 °F /  14.4 °C 43.3 °F /  6.3 °C 29.63in /  1003.3hPa SSW 8.0mph /  12.9km/h 18.0mph /  29km/h 58% 0.00in /  0mm
14:29 58.0 °F /  14.4 °C 43.3 °F /  6.3 °C 29.62in /  1002.9hPa SSW 10.0mph /  16.1km/h 18.0mph /  29km/h 58% 0.00in /  0mm
14:34 57.9 °F /  14.4 °C 43.2 °F /  6.2 °C 29.63in /  1003.3hPa SSW 7.0mph /  11.3km/h 18.0mph /  29km/h 58% 0.00in /  0mm
14:39 57.9 °F /  14.4 °C 43.2 °F /  6.2 °C 29.63in /  1003.3hPa SSW 8.0mph /  12.9km/h 15.0mph /  24.1km/h 58% 0.00in /  0mm
14:44 57.8 °F /  14.3 °C 43.1 °F /  6.2 °C 29.63in /  1003.3hPa SSW 6.0mph /  9.7km/h 13.0mph /  20.9km/h 58% 0.00in /  0mm
14:49 57.8 °F /  14.3 °C 43.6 °F /  6.4 °C 29.63in /  1003.3hPa SW 4.0mph /  6.4km/h 13.0mph /  20.9km/h 59% 0.00in /  0mm
14:54 57.7 °F /  14.3 °C 43.5 °F /  6.4 °C 29.63in /  1003.3hPa SSW 6.0mph /  9.7km/h 13.0mph /  20.9km/h 59% 0.00in /  0mm
14:59 57.6 °F /  14.2 °C 43.4 °F /  6.3 °C 29.63in /  1003.3hPa SSW 6.0mph /  9.7km/h 13.0mph /  20.9km/h 59% 0.00in /  0mm
15:04 57.5 °F /  14.2 °C 43.3 °F /  6.3 °C 29.63in /  1003.3hPa SSW 6.0mph /  9.7km/h 12.0mph /  19.3km/h 59% 0.00in /  0mm
15:09 57.4 °F /  14.1 °C 43.6 °F /  6.4 °C 29.63in /  1003.3hPa SSW 7.0mph /  11.3km/h 15.0mph /  24.1km/h 60% 0.00in /  0mm
15:14 57.4 °F /  14.1 °C 43.6 °F /  6.4 °C 29.63in /  1003.3hPa SW 7.0mph /  11.3km/h 15.0mph /  24.1km/h 60% 0.00in /  0mm
15:19 57.4 °F /  14.1 °C 43.6 °F /  6.4 °C 29.62in /  1002.9hPa SSW 3.0mph /  4.8km/h 17.0mph /  27.4km/h 60% 0.00in /  0mm
15:24 57.3 °F /  14.1 °C 43.5 °F /  6.4 °C 29.62in /  1002.9hPa SSW 5.0mph /  8km/h 17.0mph /  27.4km/h 60% 0.00in /  0mm
15:29 57.3 °F /  14.1 °C 43.5 °F /  6.4 °C 29.62in /  1002.9hPa SSW 5.0mph /  8km/h 13.0mph /  20.9km/h 60% 0.00in /  0mm
15:34 57.2 °F /  14 °C 43.5 °F /  6.4 °C 29.63in /  1003.3hPa SSW 5.0mph /  8km/h 13.0mph /  20.9km/h 60% 0.00in /  0mm
15:39 57.1 °F /  13.9 °C 43.8 °F /  6.6 °C 29.63in /  1003.3hPa SSW 7.0mph /  11.3km/h 13.0mph /  20.9km/h 61% 0.00in /  0mm
15:44 57.0 °F /  13.9 °C 43.7 °F /  6.5 °C 29.63in /  1003.3hPa SSW 6.0mph /  9.7km/h 13.0mph /  20.9km/h 61% 0.00in /  0mm
15:49 56.9 °F /  13.8 °C 43.6 °F /  6.4 °C 29.63in /  1003.3hPa SW 9.0mph /  14.5km/h 14.0mph /  22.5km/h 61% 0.00in /  0mm
15:54 56.9 °F /  13.8 °C 43.6 °F /  6.4 °C 29.63in /  1003.3hPa SSW 7.0mph /  11.3km/h 16.0mph /  25.7km/h 61% 0.00in /  0mm
15:59 56.8 °F /  13.8 °C 43.5 °F /  6.4 °C 29.63in /  1003.3hPa SSW 6.0mph /  9.7km/h 16.0mph /  25.7km/h 61% 0.00in /  0mm
16:04 56.6 °F /  13.7 °C 43.7 °F /  6.5 °C 29.62in /  1002.9hPa SSW 7.0mph /  11.3km/h 16.0mph /  25.7km/h 62% 0.00in /  0mm
16:09 56.5 °F /  13.6 °C 43.6 °F /  6.4 °C 29.62in /  1002.9hPa SSW 7.0mph /  11.3km/h 16.0mph /  25.7km/h 62% 0.00in /  0mm
16:14 56.4 °F /  13.6 °C 43.6 °F /  6.4 °C 29.62in /  1002.9hPa SSW 6.0mph /  9.7km/h 13.0mph /  20.9km/h 62% 0.00in /  0mm
16:19 56.2 °F /  13.4 °C 43.8 °F /  6.6 °C 29.63in /  1003.3hPa SSW 6.0mph /  9.7km/h 13.0mph /  20.9km/h 63% 0.00in /  0mm
16:24 56.0 °F /  13.3 °C 43.6 °F /  6.4 °C 29.63in /  1003.3hPa SSW 5.0mph /  8km/h 10.0mph /  16.1km/h 63% 0.00in /  0mm
16:29 55.9 °F /  13.3 °C 43.9 °F /  6.6 °C 29.63in /  1003.3hPa SSW 7.0mph /  11.3km/h 12.0mph /  19.3km/h 64% 0.00in /  0mm
16:34 55.8 °F /  13.2 °C 43.8 °F /  6.6 °C 29.63in /  1003.3hPa SSW 6.0mph /  9.7km/h 12.0mph /  19.3km/h 64% 0.00in /  0mm
16:39 55.8 °F /  13.2 °C 43.8 °F /  6.6 °C 29.63in /  1003.3hPa SSW 3.0mph /  4.8km/h 12.0mph /  19.3km/h 64% 0.00in /  0mm
16:44 55.7 °F /  13.2 °C 43.7 °F /  6.5 °C 29.63in /  1003.3hPa SSW 7.0mph /  11.3km/h 12.0mph /  19.3km/h 64% 0.00in /  0mm
16:49 55.6 °F /  13.1 °C 43.6 °F /  6.4 °C 29.63in /  1003.3hPa SSW 5.0mph /  8km/h 13.0mph /  20.9km/h 64% 0.00in /  0mm
16:54 55.9 °F /  13.3 °C 43.9 °F /  6.6 °C 29.63in /  1003.3hPa SSW 4.0mph /  6.4km/h 14.0mph /  22.5km/h 64% 0.00in /  0mm
16:59 55.9 °F /  13.3 °C 43.9 °F /  6.6 °C 29.62in /  1002.9hPa SSW 7.0mph /  11.3km/h 14.0mph /  22.5km/h 64% 0.00in /  0mm
17:04 55.9 °F /  13.3 °C 43.9 °F /  6.6 °C 29.62in /  1002.9hPa SSW 4.0mph /  6.4km/h 14.0mph /  22.5km/h 64% 0.00in /  0mm
17:09 55.9 °F /  13.3 °C 43.9 °F /  6.6 °C 29.62in /  1002.9hPa SSW 9.0mph /  14.5km/h 16.0mph /  25.7km/h 64% 0.00in /  0mm
17:14 55.9 °F /  13.3 °C 43.9 °F /  6.6 °C 29.62in /  1002.9hPa SSW 6.0mph /  9.7km/h 16.0mph /  25.7km/h 64% 0.00in /  0mm
17:19 55.8 °F /  13.2 °C 44.2 °F /  6.8 °C 29.62in /  1002.9hPa SSW 5.0mph /  8km/h 14.0mph /  22.5km/h 65% 0.00in /  0mm
17:24 55.6 °F /  13.1 °C 44.0 °F /  6.7 °C 29.62in /  1002.9hPa SSW 4.0mph /  6.4km/h 10.0mph /  16.1km/h 65% 0.00in /  0mm
17:29 55.4 °F /  13 °C 43.8 °F /  6.6 °C 29.62in /  1002.9hPa SSW 4.0mph /  6.4km/h 9.0mph /  14.5km/h 65% 0.00in /  0mm
17:34 55.3 °F /  12.9 °C 44.1 °F /  6.7 °C 29.62in /  1002.9hPa SSW 6.0mph /  9.7km/h 13.0mph /  20.9km/h 66% 0.00in /  0mm
17:39 55.4 °F /  13 °C 44.2 °F /  6.8 °C 29.62in /  1002.9hPa SSW 5.0mph /  8km/h 13.0mph /  20.9km/h 66% 0.00in /  0mm
17:44 55.4 °F /  13 °C 44.2 °F /  6.8 °C 29.61in /  1002.6hPa SSW 3.0mph /  4.8km/h 12.0mph /  19.3km/h 66% 0.00in /  0mm
17:49 55.5 °F /  13.1 °C 44.3 °F /  6.8 °C 29.61in /  1002.6hPa SSW 6.0mph /  9.7km/h 10.0mph /  16.1km/h 66% 0.00in /  0mm
17:54 55.5 °F /  13.1 °C 44.3 °F /  6.8 °C 29.61in /  1002.6hPa SSW 5.0mph /  8km/h 12.0mph /  19.3km/h 66% 0.00in /  0mm
17:59 55.7 °F /  13.2 °C 44.5 °F /  6.9 °C 29.61in /  1002.6hPa SSW 6.0mph /  9.7km/h 14.0mph /  22.5km/h 66% 0.00in /  0mm
18:04 55.7 °F /  13.2 °C 44.5 °F /  6.9 °C 29.61in /  1002.6hPa SSW 3.0mph /  4.8km/h 14.0mph /  22.5km/h 66% 0.00in /  0mm
18:09 55.7 °F /  13.2 °C 44.5 °F /  6.9 °C 29.61in /  1002.6hPa SSW 6.0mph /  9.7km/h 12.0mph /  19.3km/h 66% 0.00in /  0mm
18:14 55.7 °F /  13.2 °C 44.9 °F /  7.2 °C 29.61in /  1002.6hPa SSW 4.0mph /  6.4km/h 11.0mph /  17.7km/h 67% 0.00in /  0mm
18:19 55.7 °F /  13.2 °C 44.9 °F /  7.2 °C 29.61in /  1002.6hPa SSW 5.0mph /  8km/h 11.0mph /  17.7km/h 67% 0.00in /  0mm
18:24 55.8 °F /  13.2 °C 45.0 °F /  7.2 °C 29.60in /  1002.3hPa SSW 5.0mph /  8km/h 12.0mph /  19.3km/h 67% 0.00in /  0mm
18:29 55.8 °F /  13.2 °C 45.0 °F /  7.2 °C 29.60in /  1002.3hPa SSW 6.0mph /  9.7km/h 15.0mph /  24.1km/h 67% 0.00in /  0mm
18:34 55.9 °F /  13.3 °C 45.1 °F /  7.3 °C 29.60in /  1002.3hPa SSW 6.0mph /  9.7km/h 15.0mph /  24.1km/h 67% 0.00in /  0mm
18:39 55.9 °F /  13.3 °C 45.5 °F /  7.5 °C 29.60in /  1002.3hPa SSW 7.0mph /  11.3km/h 15.0mph /  24.1km/h 68% 0.00in /  0mm
18:44 55.9 °F /  13.3 °C 45.5 °F /  7.5 °C 29.60in /  1002.3hPa SSW 6.0mph /  9.7km/h 17.0mph /  27.4km/h 68% 0.00in /  0mm
18:49 56.0 °F /  13.3 °C 45.6 °F /  7.6 °C 29.59in /  1001.9hPa SSW 6.0mph /  9.7km/h 17.0mph /  27.4km/h 68% 0.00in /  0mm
18:54 56.0 °F /  13.3 °C 45.6 °F /  7.6 °C 29.60in /  1002.3hPa SSW 9.0mph /  14.5km/h 18.0mph /  29km/h 68% 0.00in /  0mm
18:59 56.0 °F /  13.3 °C 45.6 °F /  7.6 °C 29.60in /  1002.3hPa SSW 9.0mph /  14.5km/h 18.0mph /  29km/h 68% 0.00in /  0mm
19:04 56.1 °F /  13.4 °C 45.7 °F /  7.6 °C 29.60in /  1002.3hPa SSW 8.0mph /  12.9km/h 15.0mph /  24.1km/h 68% 0.00in /  0mm
19:09 56.2 °F /  13.4 °C 45.8 °F /  7.7 °C 29.60in /  1002.3hPa SSW 8.0mph /  12.9km/h 15.0mph /  24.1km/h 68% 0.00in /  0mm
19:14 56.2 °F /  13.4 °C 45.8 °F /  7.7 °C 29.60in /  1002.3hPa SSW 8.0mph /  12.9km/h 16.0mph /  25.7km/h 68% 0.00in /  0mm
19:19 56.3 °F /  13.5 °C 46.3 °F /  7.9 °C 29.59in /  1001.9hPa SSW 7.0mph /  11.3km/h 19.0mph /  30.6km/h 69% 0.00in /  0mm
19:24 56.3 °F /  13.5 °C 46.3 °F /  7.9 °C 29.59in /  1001.9hPa SSW 4.0mph /  6.4km/h 19.0mph /  30.6km/h 69% 0.00in /  0mm
19:29 56.3 °F /  13.5 °C 46.3 °F /  7.9 °C 29.59in /  1001.9hPa SSW 9.0mph /  14.5km/h 17.0mph /  27.4km/h 69% 0.00in /  0mm
19:34 56.3 °F /  13.5 °C 46.3 °F /  7.9 °C 29.59in /  1001.9hPa SW 8.0mph /  12.9km/h 18.0mph /  29km/h 69% 0.00in /  0mm
19:39 56.4 °F /  13.6 °C 46.7 °F /  8.2 °C 29.59in /  1001.9hPa SSW 6.0mph /  9.7km/h 18.0mph /  29km/h 70% 0.00in /  0mm
19:44 56.3 °F /  13.5 °C 46.7 °F /  8.2 °C 29.59in /  1001.9hPa SSW 3.0mph /  4.8km/h 15.0mph /  24.1km/h 70% 0.00in /  0mm
19:49 56.3 °F /  13.5 °C 47.0 °F /  8.3 °C 29.60in /  1002.3hPa SW 6.0mph /  9.7km/h 15.0mph /  24.1km/h 71% 0.00in /  0mm
19:54 56.3 °F /  13.5 °C 47.0 °F /  8.3 °C 29.59in /  1001.9hPa SSW 7.0mph /  11.3km/h 15.0mph /  24.1km/h 71% 0.00in /  0mm
19:59 56.4 °F /  13.6 °C 47.1 °F /  8.4 °C 29.59in /  1001.9hPa SW 5.0mph /  8km/h 13.0mph /  20.9km/h 71% 0.00in /  0mm
20:04 56.4 °F /  13.6 °C 47.5 °F /  8.6 °C 29.60in /  1002.3hPa SSW 4.0mph /  6.4km/h 14.0mph /  22.5km/h 72% 0.00in /  0mm
20:09 56.4 °F /  13.6 °C 47.9 °F /  8.8 °C 29.60in /  1002.3hPa SSW 8.0mph /  12.9km/h 17.0mph /  27.4km/h 73% 0.00in /  0mm
20:14 56.1 °F /  13.4 °C 47.9 °F /  8.8 °C 29.59in /  1001.9hPa SSW 7.0mph /  11.3km/h 17.0mph /  27.4km/h 74% 0.00in /  0mm
20:19 55.7 °F /  13.2 °C 48.3 °F /  9.1 °C 29.59in /  1001.9hPa SSW 9.0mph /  14.5km/h 17.0mph /  27.4km/h 76% 0.00in /  0mm
20:24 55.3 °F /  12.9 °C 48.2 °F /  9 °C 29.59in /  1001.9hPa SSW 7.0mph /  11.3km/h 17.0mph /  27.4km/h 77% 0.01in /  0.3mm
20:29 55.1 °F /  12.8 °C 48.7 °F /  9.3 °C 29.59in /  1001.9hPa SSW 7.0mph /  11.3km/h 15.0mph /  24.1km/h 79% 0.01in /  0.3mm
20:34 54.7 °F /  12.6 °C 48.7 °F /  9.3 °C 29.58in /  1001.6hPa SSW 6.0mph /  9.7km/h 18.0mph /  29km/h 80% 0.01in /  0.3mm
20:39 54.4 °F /  12.4 °C 48.7 °F /  9.3 °C 29.58in /  1001.6hPa SSW 7.0mph /  11.3km/h 18.0mph /  29km/h 81% 0.02in /  0.5mm
20:44 54.2 °F /  12.3 °C 48.8 °F /  9.3 °C 29.58in /  1001.6hPa SSW 9.0mph /  14.5km/h 16.0mph /  25.7km/h 82% 0.02in /  0.5mm
20:49 54.0 °F /  12.2 °C 49.0 °F /  9.4 °C 29.58in /  1001.6hPa SSW 4.0mph /  6.4km/h 16.0mph /  25.7km/h 83% 0.02in /  0.5mm
20:54 53.9 °F /  12.2 °C 48.9 °F /  9.4 °C 29.59in /  1001.9hPa SSW 10.0mph /  16.1km/h 18.0mph /  29km/h 83% 0.02in /  0.5mm
20:59 53.8 °F /  12.1 °C 49.1 °F /  9.5 °C 29.59in /  1001.9hPa SSW 9.0mph /  14.5km/h 18.0mph /  29km/h 84% 0.03in /  0.8mm
21:04 53.6 °F /  12 °C 48.9 °F /  9.4 °C 29.59in /  1001.9hPa SW 8.0mph /  12.9km/h 17.0mph /  27.4km/h 84% 0.03in /  0.8mm
21:09 53.4 °F /  11.9 °C 49.0 °F /  9.4 °C 29.60in /  1002.3hPa SSW 9.0mph /  14.5km/h 16.0mph /  25.7km/h 85% 0.04in /  1mm
21:14 53.2 °F /  11.8 °C 49.1 °F /  9.5 °C 29.60in /  1002.3hPa SSW 10.0mph /  16.1km/h 20.0mph /  32.2km/h 86% 0.05in /  1.3mm
21:19 53.0 °F /  11.7 °C 48.9 °F /  9.4 °C 29.59in /  1001.9hPa SSW 9.0mph /  14.5km/h 20.0mph /  32.2km/h 86% 0.06in /  1.5mm
21:24 52.8 °F /  11.6 °C 49.0 °F /  9.4 °C 29.59in /  1001.9hPa SSW 8.0mph /  12.9km/h 17.0mph /  27.4km/h 87% 0.08in /  2mm
21:29 52.6 °F /  11.4 °C 48.8 °F /  9.3 °C 29.59in /  1001.9hPa SSW 6.0mph /  9.7km/h 14.0mph /  22.5km/h 87% 0.09in /  2.3mm
21:34 52.5 °F /  11.4 °C 49.1 °F /  9.5 °C 29.58in /  1001.6hPa SSW 7.0mph /  11.3km/h 15.0mph /  24.1km/h 88% 0.10in /  2.5mm
21:39 52.3 °F /  11.3 °C 48.9 °F /  9.4 °C 29.58in /  1001.6hPa SSW 6.0mph /  9.7km/h 15.0mph /  24.1km/h 88% 0.11in /  2.8mm
21:44 52.2 °F /  11.2 °C 49.1 °F /  9.5 °C 29.56in /  1000.9hPa SSW 7.0mph /  11.3km/h 15.0mph /  24.1km/h 89% 0.12in /  3mm
21:49 52.2 °F /  11.2 °C 49.1 °F /  9.5 °C 29.57in /  1001.2hPa SSW 5.0mph /  8km/h 15.0mph /  24.1km/h 89% 0.12in /  3mm
21:54 52.1 °F /  11.2 °C 49.0 °F /  9.4 °C 29.56in /  1000.9hPa SSW 6.0mph /  9.7km/h 11.0mph /  17.7km/h 89% 0.12in /  3mm
21:59 52.1 °F /  11.2 °C 49.3 °F /  9.6 °C 29.56in /  1000.9hPa SSW 6.0mph /  9.7km/h 16.0mph /  25.7km/h 90% 0.12in /  3mm
22:04 52.2 °F /  11.2 °C 49.4 °F /  9.7 °C 29.58in /  1001.6hPa SW 4.0mph /  6.4km/h 16.0mph /  25.7km/h 90% 0.12in /  3mm
22:09 52.2 °F /  11.2 °C 49.4 °F /  9.7 °C 29.57in /  1001.2hPa SSW 2.0mph /  3.2km/h 11.0mph /  17.7km/h 90% 0.12in /  3mm
22:14 52.2 °F /  11.2 °C 49.4 °F /  9.7 °C 29.56in /  1000.9hPa SSW 5.0mph /  8km/h 9.0mph /  14.5km/h 90% 0.12in /  3mm
22:19 52.2 °F /  11.2 °C 49.7 °F /  9.8 °C 29.56in /  1000.9hPa SSW 4.0mph /  6.4km/h 13.0mph /  20.9km/h 91% 0.12in /  3mm
22:24 52.3 °F /  11.3 °C 49.8 °F /  9.9 °C 29.55in /  1000.6hPa SSW 6.0mph /  9.7km/h 13.0mph /  20.9km/h 91% 0.12in /  3mm
22:29 52.4 °F /  11.3 °C 49.9 °F /  9.9 °C 29.51in /  999.2hPa South 8.0mph /  12.9km/h 18.0mph /  29km/h 91% 0.12in /  3mm
22:34 52.5 °F /  11.4 °C 50.0 °F /  10 °C 29.50in /  998.9hPa South 7.0mph /  11.3km/h 18.0mph /  29km/h 91% 0.12in /  3mm
22:39 52.6 °F /  11.4 °C 50.0 °F /  10 °C 29.51in /  999.2hPa SW 4.0mph /  6.4km/h 15.0mph /  24.1km/h 91% 0.12in /  3mm
22:44 52.7 °F /  11.5 °C 50.1 °F /  10.1 °C 29.52in /  999.5hPa SSW 7.0mph /  11.3km/h 14.0mph /  22.5km/h 91% 0.12in /  3mm
22:49 53.0 °F /  11.7 °C 50.4 °F /  10.2 °C 29.52in /  999.5hPa SSW 7.0mph /  11.3km/h 14.0mph /  22.5km/h 91% 0.12in /  3mm
22:54 53.2 °F /  11.8 °C 50.6 °F /  10.3 °C 29.52in /  999.5hPa SSW 8.0mph /  12.9km/h 15.0mph /  24.1km/h 91% 0.12in /  3mm
22:59 53.3 °F /  11.8 °C 50.7 °F /  10.4 °C 29.53in /  999.9hPa SSW 9.0mph /  14.5km/h 19.0mph /  30.6km/h 91% 0.12in /  3mm
23:04 53.5 °F /  11.9 °C 50.6 °F /  10.3 °C 29.52in /  999.5hPa SSW 5.0mph /  8km/h 19.0mph /  30.6km/h 90% 0.12in /  3mm
23:09 53.5 °F /  11.9 °C 50.6 °F /  10.3 °C 29.51in /  999.2hPa SW 5.0mph /  8km/h 13.0mph /  20.9km/h 90% 0.12in /  3mm
23:14 53.5 °F /  11.9 °C 50.6 °F /  10.3 °C 29.51in /  999.2hPa SSW 7.0mph /  11.3km/h 15.0mph /  24.1km/h 90% 0.12in /  3mm
23:19 53.5 °F /  11.9 °C 50.6 °F /  10.3 °C 29.51in /  999.2hPa SSW 6.0mph /  9.7km/h 15.0mph /  24.1km/h 90% 0.12in /  3mm
23:24 53.6 °F /  12 °C 50.7 °F /  10.4 °C 29.51in /  999.2hPa SSW 8.0mph /  12.9km/h 14.0mph /  22.5km/h 90% 0.12in /  3mm
23:29 53.6 °F /  12 °C 50.7 °F /  10.4 °C 29.53in /  999.9hPa SW 5.0mph /  8km/h 14.0mph /  22.5km/h 90% 0.12in /  3mm
23:34 53.7 °F /  12.1 °C 50.8 °F /  10.4 °C 29.53in /  999.9hPa SW 6.0mph /  9.7km/h 12.0mph /  19.3km/h 90% 0.12in /  3mm
23:39 53.7 °F /  12.1 °C 50.8 °F /  10.4 °C 29.52in /  999.5hPa SSW 11.0mph /  17.7km/h 18.0mph /  29km/h 90% 0.12in /  3mm
23:44 53.8 °F /  12.1 °C 50.9 °F /  10.5 °C 29.51in /  999.2hPa SW 8.0mph /  12.9km/h 18.0mph /  29km/h 90% 0.12in /  3mm
23:49 53.8 °F /  12.1 °C 50.9 °F /  10.5 °C 29.50in /  998.9hPa SSW 5.0mph /  8km/h 16.0mph /  25.7km/h 90% 0.12in /  3mm
23:54 53.8 °F /  12.1 °C 50.9 °F /  10.5 °C 29.50in /  998.9hPa SSW 9.0mph /  14.5km/h 15.0mph /  24.1km/h 90% 0.12in /  3mm
23:59 53.8 °F /  12.1 °C 50.9 °F /  10.5 °C 29.49in /  998.5hPa SSW 5.0mph /  8km/h 18.0mph /  29km/h 90% 0.12in /  3mm
Westford Weather
Compliments of Weather Underground

 
 
Current Radar Loop:

Copyright © WestfordWeather.net 2007-2014. All rights reserved.